Time;durP1;ratioP1;P1;durP2;ratioP2;P2;SDS_P1;SDS_P2;PMS_P1;PMS_P2;Temp;Humidity;BMP_temperature;BMP_pressure;BME280_temperature;BME280_humidity;BME280_pressure;Samples;Min_cycle;Max_cycle;Signal;HPM_P1;HPM_P2
2022/11/25 00:01:24;;;;;;;6.67;2.10;;;12.40;99.90;;;;;;4999787;28;20188;-75
2022/11/25 00:03:53;;;;;;;3.90;1.30;;;12.40;99.90;;;;;;5019808;28;20549;-76
2022/11/25 00:06:32;;;;;;;7.90;1.70;;;12.30;99.90;;;;;;5007411;28;20279;-76
2022/11/25 00:09:09;;;;;;;6.40;1.50;;;12.30;99.90;;;;;;4998601;28;20192;-75
2022/11/25 00:11:38;;;;;;;4.57;1.40;;;12.40;99.90;;;;;;5015584;28;20712;-75
2022/11/25 00:14:05;;;;;;;5.27;1.60;;;12.30;99.90;;;;;;5016220;28;20719;-76
2022/11/25 00:16:32;;;;;;;7.13;1.50;;;12.30;99.90;;;;;;5015768;28;20207;-75
2022/11/25 00:18:58;;;;;;;7.13;1.90;;;12.20;99.90;;;;;;5015917;28;20189;-76
2022/11/25 00:21:30;;;;;;;5.50;1.47;;;12.20;99.90;;;;;;4996018;28;20284;-76
2022/11/25 00:24:00;;;;;;;5.93;1.60;;;12.30;99.90;;;;;;5018920;28;20193;-75
2022/11/25 00:26:31;;;;;;;9.23;2.27;;;12.30;99.90;;;;;;5020349;28;20192;-75
2022/11/25 00:29:00;;;;;;;5.00;1.53;;;12.30;99.90;;;;;;5010142;28;20237;-75
2022/11/25 00:31:31;;;;;;;5.90;1.40;;;12.30;99.90;;;;;;5003810;28;20222;-75
2022/11/25 00:33:57;;;;;;;4.57;1.50;;;12.30;99.90;;;;;;5013697;28;20619;-75
2022/11/25 00:36:33;;;;;;;3.73;1.20;;;12.30;99.90;;;;;;4996927;28;20724;-75
2022/11/25 00:39:14;;;;;;;3.13;1.30;;;12.30;99.90;;;;;;5014200;28;20206;-75
2022/11/25 00:44:38;;;;;;;6.90;1.97;;;12.20;99.90;;;;;;5009392;28;20271;-76
2022/11/25 00:47:21;;;;;;;5.60;1.60;;;12.20;99.90;;;;;;5021558;28;20667;-76
2022/11/25 00:49:53;;;;;;;6.53;1.50;;;12.10;99.90;;;;;;5024629;28;20246;-75
2022/11/25 00:52:25;;;;;;;4.27;1.60;;;12.20;99.90;;;;;;5009395;28;20665;-75
2022/11/25 00:54:53;;;;;;;2.97;1.40;;;12.10;99.90;;;;;;5015504;28;20717;-75
2022/11/25 00:57:24;;;;;;;6.60;1.40;;;12.20;99.90;;;;;;4995220;28;20720;-75
2022/11/25 00:59:50;;;;;;;3.83;1.50;;;12.20;99.90;;;;;;4988732;28;20181;-75
2022/11/25 01:02:18;;;;;;;3.93;1.50;;;12.10;99.90;;;;;;4999594;28;20250;-76
2022/11/25 01:04:46;;;;;;;2.23;1.20;;;12.10;99.90;;;;;;5005053;28;20189;-76
2022/11/25 01:07:12;;;;;;;7.13;1.60;;;12.10;99.90;;;;;;5017603;28;20192;-76
2022/11/25 01:09:39;;;;;;;5.90;1.40;;;12.20;99.90;;;;;;5007548;28;20600;-75
2022/11/25 01:12:06;;;;;;;7.80;1.50;;;12.00;99.90;;;;;;5008920;28;20326;-75
2022/11/25 01:14:33;;;;;;;8.07;1.90;;;12.10;99.90;;;;;;5004565;28;20303;-76
2022/11/25 01:17:00;;;;;;;10.97;1.60;;;12.00;99.90;;;;;;4985988;28;20239;-75
2022/11/25 01:19:27;;;;;;;4.37;1.63;;;12.00;99.90;;;;;;5001664;28;20561;-75
2022/11/25 01:21:53;;;;;;;4.10;1.30;;;12.00;99.90;;;;;;4990892;28;20250;-76
2022/11/25 01:24:21;;;;;;;5.20;1.33;;;12.10;99.90;;;;;;5017932;28;20200;-76
2022/11/25 01:26:47;;;;;;;6.57;1.60;;;12.20;99.90;;;;;;5017105;28;20184;-75
2022/11/25 01:29:17;;;;;;;7.03;2.07;;;12.20;99.90;;;;;;4997329;28;20693;-75
2022/11/25 01:31:47;;;;;;;7.47;1.60;;;12.30;99.90;;;;;;5006009;28;20295;-75
2022/11/25 01:34:19;;;;;;;8.10;1.90;;;12.20;99.90;;;;;;5016745;28;20288;-76
2022/11/25 01:36:46;;;;;;;8.10;1.70;;;12.30;99.90;;;;;;5020986;28;20602;-75
2022/11/25 01:39:24;;;;;;;5.60;1.80;;;12.30;99.90;;;;;;5020642;28;20262;-75
2022/11/25 01:41:50;;;;;;;7.30;1.97;;;12.40;99.90;;;;;;5006442;28;20594;-75
2022/11/25 01:44:24;;;;;;;9.27;2.30;;;12.40;99.90;;;;;;5006045;28;20699;-75
2022/11/25 01:47:31;;;;;;;7.53;1.80;;;12.40;99.90;;;;;;5013059;28;20207;-75
2022/11/25 01:50:08;;;;;;;7.80;2.00;;;12.40;99.90;;;;;;4979768;28;20605;-76
2022/11/25 01:52:47;;;;;;;7.43;2.30;;;12.40;99.90;;;;;;5007888;28;20184;-75
2022/11/25 01:55:20;;;;;;;7.00;2.07;;;12.40;99.90;;;;;;5006447;28;20238;-76
2022/11/25 01:58:03;;;;;;;4.17;1.80;;;12.40;99.90;;;;;;4989846;28;20259;-75
2022/11/25 02:00:30;;;;;;;6.73;1.93;;;12.40;99.90;;;;;;5000540;28;20195;-76
2022/11/25 02:02:58;;;;;;;3.57;1.60;;;12.40;99.90;;;;;;4993942;28;20293;-76
2022/11/25 02:05:41;;;;;;;5.03;1.67;;;12.40;99.90;;;;;;4999723;28;20200;-75
2022/11/25 02:08:09;;;;;;;8.90;1.80;;;12.40;99.90;;;;;;5025421;28;20196;-76
2022/11/25 02:10:36;;;;;;;5.73;1.87;;;12.30;99.90;;;;;;4991406;28;20188;-76
2022/11/25 02:13:02;;;;;;;5.33;1.70;;;12.40;99.90;;;;;;5005316;28;20266;-76
2022/11/25 02:15:34;;;;;;;2.83;1.50;;;12.40;99.90;;;;;;4997943;28;20432;-75
2022/11/25 02:18:01;;;;;;;4.63;1.53;;;12.40;99.90;;;;;;5008944;28;20625;-75
2022/11/25 02:20:28;;;;;;;3.33;1.60;;;12.40;99.90;;;;;;4991313;28;20192;-75
2022/11/25 02:23:24;;;;;;;6.23;1.70;;;12.40;99.90;;;;;;5024708;28;20353;-76
2022/11/25 02:25:52;;;;;;;6.63;1.83;;;12.40;99.90;;;;;;5004536;28;20278;-76
2022/11/25 02:28:28;;;;;;;5.97;1.90;;;12.40;99.90;;;;;;5021142;28;20184;-76
2022/11/25 02:30:55;;;;;;;3.73;1.53;;;12.30;99.90;;;;;;5014408;28;20606;-75
2022/11/25 02:33:23;;;;;;;4.63;1.67;;;12.40;99.90;;;;;;5004070;28;20539;-75
2022/11/25 02:36:04;;;;;;;5.73;1.83;;;12.40;99.90;;;;;;4982787;28;20181;-77
2022/11/25 02:38:39;;;;;;;5.87;1.70;;;12.40;99.90;;;;;;4987977;28;20220;-77
2022/11/25 02:41:17;;;;;;;8.53;1.90;;;12.40;99.90;;;;;;4987206;28;20261;-77
2022/11/25 02:43:44;;;;;;;3.60;1.50;;;12.40;99.90;;;;;;4988478;28;20199;-77
2022/11/25 02:46:18;;;;;;;8.67;1.50;;;12.40;99.90;;;;;;5010700;28;20196;-77
2022/11/25 02:48:45;;;;;;;3.73;1.60;;;12.40;99.90;;;;;;5012639;28;20192;-77
2022/11/25 02:51:16;;;;;;;4.60;1.80;;;12.30;99.90;;;;;;5005572;28;20202;-77
2022/11/25 02:53:43;;;;;;;3.07;1.80;;;12.30;99.90;;;;;;4991732;28;20205;-76
2022/11/25 02:56:13;;;;;;;3.03;1.97;;;12.30;99.90;;;;;;5007162;28;20233;-76
2022/11/25 02:58:40;;;;;;;3.47;1.53;;;12.30;99.90;;;;;;5015725;28;20196;-76
2022/11/25 03:01:07;;;;;;;3.90;1.60;;;12.30;99.90;;;;;;5012732;28;20199;-76
2022/11/25 03:03:33;;;;;;;5.37;1.73;;;12.20;99.90;;;;;;5023924;28;20188;-76
2022/11/25 03:06:00;;;;;;;3.83;1.57;;;12.30;99.90;;;;;;5012164;28;20271;-76
2022/11/25 03:08:27;;;;;;;4.93;1.70;;;12.30;99.90;;;;;;5003594;28;20200;-76
2022/11/25 03:10:55;;;;;;;3.17;1.40;;;12.30;99.90;;;;;;5007666;28;20268;-76
2022/11/25 03:13:26;;;;;;;3.80;1.50;;;12.30;99.90;;;;;;5016261;28;20689;-76
2022/11/25 03:15:53;;;;;;;3.13;1.37;;;12.20;99.90;;;;;;5001129;28;20203;-76
2022/11/25 03:18:20;;;;;;;12.70;2.10;;;12.20;99.90;;;;;;4991671;28;20188;-76
2022/11/25 03:20:46;;;;;;;4.80;1.70;;;12.10;99.90;;;;;;5024342;28;20538;-76
2022/11/25 03:23:12;;;;;;;4.80;1.70;;;12.00;99.90;;;;;;5015373;28;20185;-76
2022/11/25 03:25:38;;;;;;;3.53;1.50;;;12.00;99.90;;;;;;5021549;28;20265;-76
2022/11/25 03:28:06;;;;;;;5.83;1.60;;;12.00;99.90;;;;;;5018861;28;20187;-76
2022/11/25 03:30:36;;;;;;;6.27;1.60;;;11.80;99.90;;;;;;4997484;28;20755;-76
2022/11/25 03:33:04;;;;;;;2.43;1.30;;;11.90;99.90;;;;;;5005160;28;20239;-76
2022/11/25 03:35:30;;;;;;;6.57;2.10;;;12.00;99.90;;;;;;5013820;28;20183;-76
2022/11/25 03:37:56;;;;;;;3.97;1.63;;;11.90;99.90;;;;;;5005645;28;20197;-76
2022/11/25 03:40:23;;;;;;;4.67;1.60;;;11.90;99.90;;;;;;5016350;28;20195;-76
2022/11/25 03:42:50;;;;;;;2.73;1.47;;;11.80;99.90;;;;;;5015762;28;20189;-76
2022/11/25 03:45:16;;;;;;;7.73;1.67;;;11.80;99.90;;;;;;4998963;28;20185;-76
2022/11/25 03:47:44;;;;;;;4.23;1.60;;;11.80;99.90;;;;;;5003359;28;20199;-76
2022/11/25 03:50:16;;;;;;;7.13;1.67;;;11.70;99.90;;;;;;5011674;28;20729;-76
2022/11/25 03:52:44;;;;;;;3.57;1.30;;;11.70;99.90;;;;;;5025801;28;20211;-76
2022/11/25 03:55:12;;;;;;;4.57;1.20;;;11.80;99.90;;;;;;5015695;28;20203;-76
2022/11/25 03:57:40;;;;;;;4.40;1.20;;;11.80;99.90;;;;;;5015390;28;20250;-76
2022/11/25 04:00:09;;;;;;;3.47;1.20;;;11.70;99.90;;;;;;4987981;28;20184;-76
2022/11/25 04:02:35;;;;;;;3.43;1.13;;;11.70;99.90;;;;;;5011179;28;20193;-76
2022/11/25 04:05:06;;;;;;;2.30;1.07;;;11.50;99.90;;;;;;5007598;28;20173;-76
2022/11/25 04:07:33;;;;;;;2.30;1.40;;;11.40;99.90;;;;;;5005642;28;20246;-75
2022/11/25 04:09:59;;;;;;;5.63;1.50;;;11.50;99.90;;;;;;5002479;28;20801;-76
2022/11/25 04:15:11;;;;;;;3.00;1.30;;;11.30;99.90;;;;;;5019699;28;20279;-76
2022/11/25 04:17:38;;;;;;;2.37;1.10;;;11.40;99.90;;;;;;4994490;28;20192;-76
2022/11/25 04:20:05;;;;;;;3.20;1.07;;;11.30;99.90;;;;;;5012415;28;20203;-76
2022/11/25 04:22:33;;;;;;;5.33;1.57;;;11.30;99.90;;;;;;5006071;28;20727;-75
2022/11/25 04:25:03;;;;;;;4.33;1.20;;;11.40;99.90;;;;;;5001171;28;20188;-76
2022/11/25 04:27:30;;;;;;;6.53;1.40;;;11.00;99.90;;;;;;5005226;28;20219;-76
2022/11/25 04:29:57;;;;;;;3.73;1.27;;;10.90;99.90;;;;;;5021048;28;20219;-76
2022/11/25 04:32:24;;;;;;;4.57;1.10;;;10.90;99.90;;;;;;5016762;28;20597;-76
2022/11/25 04:34:51;;;;;;;4.70;1.50;;;10.90;99.90;;;;;;5014740;28;20291;-76
2022/11/25 04:37:17;;;;;;;4.00;1.70;;;11.10;99.90;;;;;;5011983;28;20185;-76
2022/11/25 04:39:44;;;;;;;3.70;1.40;;;11.20;99.90;;;;;;4997808;28;20647;-76
2022/11/25 04:45:17;;;;;;;3.77;1.50;;;11.10;99.90;;;;;;4926962;28;20195;-75
2022/11/25 04:47:44;;;;;;;3.93;1.70;;;11.20;99.90;;;;;;4944294;28;20692;-76
2022/11/25 04:50:19;;;;;;;2.90;1.40;;;11.20;99.90;;;;;;4974500;28;20238;-76
2022/11/25 04:52:45;;;;;;;2.33;1.37;;;11.20;99.90;;;;;;5017482;28;20188;-76
2022/11/25 04:55:16;;;;;;;4.30;1.30;;;11.30;99.90;;;;;;5011965;28;20185;-75
2022/11/25 04:57:44;;;;;;;3.70;1.30;;;11.40;99.90;;;;;;4997486;28;20180;-76
2022/11/25 05:00:11;;;;;;;3.23;1.10;;;11.40;99.90;;;;;;4998614;28;20184;-76
2022/11/25 05:02:39;;;;;;;10.33;1.73;;;11.40;99.90;;;;;;5000621;28;20184;-76
2022/11/25 05:05:06;;;;;;;3.50;1.20;;;11.40;99.90;;;;;;5014669;28;20298;-76
2022/11/25 05:07:32;;;;;;;3.10;1.30;;;11.40;99.90;;;;;;4988186;28;20878;-76
2022/11/25 05:09:59;;;;;;;4.00;1.57;;;11.50;99.90;;;;;;4996267;28;20203;-75
2022/11/25 05:12:28;;;;;;;2.80;1.30;;;11.50;99.90;;;;;;5010384;28;20188;-76
2022/11/25 05:14:56;;;;;;;4.97;1.57;;;11.60;99.90;;;;;;4991892;28;20209;-76
2022/11/25 05:17:29;;;;;;;3.17;1.53;;;11.60;99.90;;;;;;5018250;28;20283;-76
2022/11/25 05:19:57;;;;;;;2.80;1.40;;;11.70;99.90;;;;;;5007436;28;20653;-76
2022/11/25 05:22:28;;;;;;;3.57;1.47;;;11.70;99.90;;;;;;5025454;28;20180;-76
2022/11/25 05:24:55;;;;;;;2.53;1.60;;;11.70;99.90;;;;;;5008865;28;20180;-76
2022/11/25 05:27:22;;;;;;;2.90;1.50;;;11.70;99.90;;;;;;4998894;28;20191;-76
2022/11/25 05:29:49;;;;;;;4.87;1.50;;;11.70;99.90;;;;;;5010942;28;20249;-76
2022/11/25 05:32:16;;;;;;;2.00;1.30;;;11.80;99.90;;;;;;5016278;28;20240;-75
2022/11/25 05:34:43;;;;;;;5.00;1.60;;;11.80;99.90;;;;;;5009517;28;20304;-76
2022/11/25 05:37:13;;;;;;;6.40;1.57;;;11.90;99.90;;;;;;5007366;28;20188;-76
2022/11/25 05:39:40;;;;;;;7.47;1.93;;;12.00;99.90;;;;;;5002620;28;20291;-76
2022/11/25 05:42:06;;;;;;;4.93;1.43;;;12.00;99.90;;;;;;5022862;28;20215;-76
2022/11/25 05:44:54;;;;;;;3.83;1.63;;;12.00;99.90;;;;;;5000141;28;20519;-76
2022/11/25 05:47:21;;;;;;;3.20;1.40;;;12.10;99.90;;;;;;5024324;28;20310;-76
2022/11/25 05:49:47;;;;;;;5.43;1.60;;;12.10;99.90;;;;;;5024536;28;20291;-76
2022/11/25 05:52:14;;;;;;;6.00;1.80;;;12.10;99.90;;;;;;5007203;28;20188;-76
2022/11/25 05:54:40;;;;;;;7.50;1.67;;;12.20;99.90;;;;;;4979718;28;20239;-76
2022/11/25 05:57:06;;;;;;;5.73;1.70;;;12.20;99.90;;;;;;5016073;28;20238;-76
2022/11/25 05:59:33;;;;;;;3.53;1.33;;;12.10;99.90;;;;;;5023719;28;20196;-76
2022/11/25 06:02:00;;;;;;;7.20;1.60;;;12.10;99.90;;;;;;5012046;28;20195;-75
2022/11/25 06:04:26;;;;;;;6.87;1.40;;;12.20;99.90;;;;;;5014326;28;20685;-76
2022/11/25 06:06:52;;;;;;;7.13;1.90;;;12.10;99.90;;;;;;5004682;28;20193;-75
2022/11/25 06:09:18;;;;;;;5.50;1.80;;;12.10;99.90;;;;;;5012459;28;20626;-76
2022/11/25 06:11:45;;;;;;;6.03;1.77;;;12.10;99.90;;;;;;5011489;28;20192;-76
2022/11/25 06:14:16;;;;;;;3.97;1.43;;;12.00;99.90;;;;;;5019931;28;20220;-76
2022/11/25 06:16:42;;;;;;;3.97;1.50;;;11.90;99.90;;;;;;5020455;28;20238;-75
2022/11/25 06:19:09;;;;;;;5.00;1.50;;;11.90;99.90;;;;;;4997728;28;20189;-76
2022/11/25 06:21:36;;;;;;;7.40;1.60;;;11.90;99.90;;;;;;5016251;28;20190;-76
2022/11/25 06:24:02;;;;;;;2.73;1.43;;;12.00;99.90;;;;;;4999916;28;20207;-76
2022/11/25 06:26:28;;;;;;;7.50;1.70;;;11.90;99.90;;;;;;4995614;28;20256;-76
2022/11/25 06:28:55;;;;;;;4.17;1.30;;;11.80;99.90;;;;;;5004496;28;20189;-75
2022/11/25 06:31:25;;;;;;;7.20;1.40;;;11.90;99.90;;;;;;5020485;28;20193;-76
2022/11/25 06:33:52;;;;;;;4.07;1.53;;;11.90;99.90;;;;;;5015821;28;20239;-76
2022/11/25 06:36:21;;;;;;;4.67;1.40;;;12.00;99.90;;;;;;5001422;28;20196;-76
2022/11/25 06:38:53;;;;;;;2.80;1.40;;;12.00;99.90;;;;;;5013787;28;20743;-75
2022/11/25 06:41:21;;;;;;;3.17;1.23;;;12.10;99.90;;;;;;4992720;28;20213;-76
2022/11/25 06:43:47;;;;;;;4.13;1.40;;;12.20;99.90;;;;;;5002209;28;20188;-76
2022/11/25 06:46:17;;;;;;;2.90;1.60;;;12.20;99.90;;;;;;4985747;28;20189;-76
2022/11/25 06:48:44;;;;;;;8.23;1.70;;;12.30;99.90;;;;;;5001344;28;20192;-76
2022/11/25 06:51:16;;;;;;;3.53;1.43;;;12.40;99.90;;;;;;5013994;28;20559;-76
2022/11/25 06:53:44;;;;;;;7.80;1.47;;;12.50;99.90;;;;;;4999233;28;20636;-76
2022/11/25 06:56:25;;;;;;;7.70;1.83;;;12.60;99.90;;;;;;5017465;28;20192;-76
2022/11/25 06:58:54;;;;;;;5.47;1.67;;;12.60;99.90;;;;;;5005105;28;20539;-76
2022/11/25 07:01:23;;;;;;;5.67;1.97;;;12.60;99.90;;;;;;5019391;28;20553;-76
2022/11/25 07:03:53;;;;;;;5.03;1.80;;;12.70;99.90;;;;;;5010494;28;20188;-76
2022/11/25 07:06:20;;;;;;;6.80;1.57;;;12.70;99.90;;;;;;5024834;28;20196;-76
2022/11/25 07:08:47;;;;;;;7.63;1.70;;;12.80;99.90;;;;;;4989032;28;20277;-76
2022/11/25 07:11:38;;;;;;;7.00;2.17;;;12.90;99.90;;;;;;5017428;28;20270;-76
2022/11/25 07:14:10;;;;;;;8.60;2.10;;;13.00;99.90;;;;;;4989277;28;20927;-76
2022/11/25 07:16:42;;;;;;;3.50;1.63;;;13.00;99.90;;;;;;5026908;28;20185;-76
2022/11/25 07:19:12;;;;;;;11.47;2.20;;;13.00;99.90;;;;;;5016434;28;20196;-76
2022/11/25 07:21:40;;;;;;;3.53;1.85;;;13.10;99.90;;;;;;4998013;28;20519;-76
2022/11/25 07:24:09;;;;;;;6.87;1.60;;;13.10;99.90;;;;;;5019372;28;20184;-76
2022/11/25 07:26:39;;;;;;;6.53;1.63;;;13.20;99.90;;;;;;4993705;28;20326;-76
2022/11/25 07:29:13;;;;;;;4.40;1.80;;;13.20;99.90;;;;;;5023380;28;20187;-76
2022/11/25 07:31:44;;;;;;;5.63;1.70;;;13.20;99.90;;;;;;5023825;28;20188;-76
2022/11/25 07:34:20;;;;;;;6.10;1.83;;;13.20;99.90;;;;;;4995805;28;20957;-76
2022/11/25 07:36:51;;;;;;;14.07;2.47;;;13.20;99.90;;;;;;5000851;28;20183;-76
2022/11/25 07:39:22;;;;;;;7.63;2.00;;;13.20;99.90;;;;;;4997201;28;20188;-76
2022/11/25 07:41:51;;;;;;;6.83;1.77;;;13.20;99.90;;;;;;5017091;28;20192;-76
2022/11/25 07:44:18;;;;;;;5.67;1.53;;;13.30;99.90;;;;;;5004471;28;20183;-76
2022/11/25 07:46:48;;;;;;;4.30;1.67;;;13.30;99.90;;;;;;5000588;28;20291;-76
2022/11/25 07:49:26;;;;;;;12.23;1.50;;;13.30;99.90;;;;;;5012745;28;20192;-76
2022/11/25 07:51:58;;;;;;;4.20;1.70;;;13.30;99.90;;;;;;5019340;28;20716;-76
2022/11/25 07:54:25;;;;;;;5.43;1.70;;;13.30;99.90;;;;;;5022859;28;20235;-76
2022/11/25 07:56:52;;;;;;;4.17;1.70;;;13.30;99.90;;;;;;5017527;28;21915;-76
2022/11/25 07:59:21;;;;;;;2.77;1.50;;;13.30;99.90;;;;;;5016372;28;20306;-76
2022/11/25 08:01:53;;;;;;;2.80;1.17;;;13.30;99.90;;;;;;5019670;28;20183;-76
2022/11/25 08:04:19;;;;;;;6.33;1.70;;;13.30;99.90;;;;;;4997819;28;20641;-76
2022/11/25 08:06:48;;;;;;;1.80;1.40;;;13.30;99.90;;;;;;5010200;28;20189;-76
2022/11/25 08:09:20;;;;;;;2.77;1.20;;;13.30;99.90;;;;;;4997718;28;20819;-76
2022/11/25 08:11:48;;;;;;;8.27;1.60;;;13.40;99.90;;;;;;4986086;28;20693;-76
2022/11/25 08:14:19;;;;;;;6.87;1.50;;;13.30;99.90;;;;;;5021586;28;20227;-76
2022/11/25 08:16:46;;;;;;;3.67;1.80;;;13.40;99.90;;;;;;5012723;28;20216;-76
2022/11/25 08:19:16;;;;;;;2.90;1.47;;;13.50;99.90;;;;;;5017432;28;20764;-75
2022/11/25 08:21:43;;;;;;;4.83;1.90;;;13.50;99.90;;;;;;4992076;28;20634;-76
2022/11/25 08:24:18;;;;;;;4.40;1.57;;;13.50;99.90;;;;;;5003902;28;20207;-76
2022/11/25 08:26:45;;;;;;;4.33;1.47;;;13.40;99.90;;;;;;5014759;28;20184;-76
2022/11/25 08:29:17;;;;;;;4.67;1.47;;;13.60;99.90;;;;;;5011638;28;20287;-76
2022/11/25 08:31:44;;;;;;;3.10;1.67;;;13.60;99.90;;;;;;5021365;28;20196;-76
2022/11/25 08:34:20;;;;;;;3.53;1.80;;;13.80;99.90;;;;;;5010165;28;20307;-76
2022/11/25 08:36:47;;;;;;;3.07;1.73;;;13.80;99.90;;;;;;5012221;28;20214;-75
2022/11/25 08:39:13;;;;;;;3.30;1.60;;;13.90;99.90;;;;;;5014504;28;20261;-76
2022/11/25 08:41:39;;;;;;;6.73;1.63;;;14.00;99.90;;;;;;5014847;28;20238;-76
2022/11/25 08:44:08;;;;;;;4.10;1.50;;;14.00;99.90;;;;;;4998702;28;20204;-76
2022/11/25 08:46:38;;;;;;;5.87;1.97;;;14.00;99.90;;;;;;5011555;28;20688;-77
2022/11/25 08:49:08;;;;;;;4.03;1.40;;;14.00;99.90;;;;;;4998316;28;20195;-76
2022/11/25 08:51:37;;;;;;;5.40;1.50;;;13.90;99.90;;;;;;4995331;28;20189;-76
2022/11/25 08:54:06;;;;;;;5.43;1.70;;;13.80;99.90;;;;;;4990478;28;20192;-77
2022/11/25 08:56:33;;;;;;;4.03;1.80;;;13.80;99.90;;;;;;5019978;28;20684;-76
2022/11/25 08:59:00;;;;;;;3.73;1.63;;;13.80;99.90;;;;;;5019585;28;20684;-76
2022/11/25 09:01:26;;;;;;;2.10;1.80;;;13.90;99.90;;;;;;4997469;28;21761;-76
2022/11/25 09:03:56;;;;;;;4.07;1.73;;;13.90;99.90;;;;;;5012728;28;20204;-76
2022/11/25 09:06:26;;;;;;;5.77;2.40;;;14.00;99.90;;;;;;5016954;28;20208;-76
2022/11/25 09:08:57;;;;;;;5.67;1.90;;;14.20;99.90;;;;;;5023198;28;20194;-76
2022/11/25 09:11:25;;;;;;;5.17;2.00;;;14.30;99.90;;;;;;5014148;28;20569;-76
2022/11/25 09:13:52;;;;;;;6.00;2.20;;;14.40;99.90;;;;;;4985633;28;20299;-76
2022/11/25 09:16:19;;;;;;;3.27;2.20;;;14.50;99.90;;;;;;5001622;28;20199;-76
2022/11/25 09:18:46;;;;;;;5.07;2.00;;;14.60;99.90;;;;;;5015103;28;20207;-76
2022/11/25 09:21:16;;;;;;;2.87;1.67;;;14.70;99.90;;;;;;5010022;28;20188;-76
2022/11/25 09:23:43;;;;;;;5.17;1.97;;;14.60;99.90;;;;;;5014248;28;20192;-76
2022/11/25 09:26:28;;;;;;;4.47;1.97;;;14.60;99.90;;;;;;5000741;28;20200;-76
2022/11/25 09:28:56;;;;;;;4.03;2.03;;;14.70;99.90;;;;;;4994239;28;20824;-76
2022/11/25 09:31:23;;;;;;;5.07;1.90;;;14.70;99.90;;;;;;5009971;28;20199;-76
2022/11/25 09:33:50;;;;;;;2.87;1.50;;;14.80;99.90;;;;;;5019052;28;20239;-76
2022/11/25 09:36:20;;;;;;;8.70;1.90;;;14.80;99.90;;;;;;4997889;28;20192;-76
2022/11/25 09:38:47;;;;;;;4.07;1.83;;;14.90;99.90;;;;;;5002017;28;20184;-76
2022/11/25 09:48:22;;;;;;;3.67;1.50;;;15.20;99.90;;;;;;5009854;28;20188;-77
2022/11/25 09:51:12;;;;;;;3.03;1.90;;;15.30;99.90;;;;;;5016172;28;20679;-76
2022/11/25 09:53:57;;;;;;;5.93;1.47;;;15.50;99.90;;;;;;5014722;28;20457;-76
2022/11/25 09:56:57;;;;;;;5.30;1.43;;;15.50;99.90;;;;;;5022636;28;20188;-76
2022/11/25 09:59:57;;;;;;;4.67;1.60;;;15.60;99.90;;;;;;4988320;28;20654;-76
2022/11/25 10:02:59;;;;;;;4.20;1.20;;;15.50;99.90;;;;;;4989003;28;20201;-76
2022/11/25 10:05:44;;;;;;;3.80;1.20;;;15.30;99.90;;;;;;4974652;28;20659;-76
2022/11/25 10:08:36;;;;;;;3.23;1.47;;;15.10;99.90;;;;;;5013398;28;20200;-76
2022/11/25 10:11:23;;;;;;;6.33;1.30;;;15.00;99.90;;;;;;5016687;28;20196;-76
2022/11/25 10:14:04;;;;;;;6.00;1.60;;;14.90;99.90;;;;;;4976385;28;20280;-76
2022/11/25 10:17:00;;;;;;;1.83;1.20;;;14.70;99.90;;;;;;5014055;28;20204;-76
2022/11/25 10:20:06;;;;;;;4.33;1.57;;;14.70;99.90;;;;;;5011627;28;20341;-76
2022/11/25 10:22:45;;;;;;;5.13;1.40;;;14.70;99.90;;;;;;4978174;28;20196;-76
2022/11/25 10:25:19;;;;;;;2.93;1.20;;;14.60;99.90;;;;;;5013758;28;20854;-76
2022/11/25 10:28:21;;;;;;;6.57;1.30;;;14.60;99.90;;;;;;5016103;28;20196;-76
2022/11/25 10:31:18;;;;;;;3.07;1.40;;;14.60;99.90;;;;;;4991241;28;20249;-76
2022/11/25 10:33:57;;;;;;;3.50;1.80;;;14.50;99.90;;;;;;5018455;28;20208;-76
2022/11/25 10:36:38;;;;;;;4.50;1.47;;;14.60;99.90;;;;;;5017800;28;20197;-76
2022/11/25 10:39:09;;;;;;;1.63;1.40;;;14.60;99.90;;;;;;5018539;28;20211;-76
2022/11/25 10:42:02;;;;;;;3.27;1.40;;;14.70;99.90;;;;;;5002049;28;20184;-76
2022/11/25 10:44:38;;;;;;;3.23;1.23;;;14.70;99.90;;;;;;5013623;28;20303;-77
2022/11/25 10:47:44;;;;;;;3.13;1.50;;;14.80;99.90;;;;;;4995586;28;20288;-77
2022/11/25 10:50:33;;;;;;;4.73;1.87;;;14.90;99.90;;;;;;5013219;28;20181;-76
2022/11/25 10:53:37;;;;;;;2.83;1.37;;;15.00;99.90;;;;;;5001105;28;20224;-77
2022/11/25 10:56:25;;;;;;;2.67;1.10;;;15.00;99.90;;;;;;4964872;28;20216;-77
2022/11/25 10:58:54;;;;;;;3.57;1.37;;;14.90;99.90;;;;;;4989042;28;20196;-77
2022/11/25 11:01:24;;;;;;;1.23;1.13;;;14.90;99.90;;;;;;5004639;28;20390;-77
2022/11/25 11:04:17;;;;;;;2.57;1.37;;;14.90;99.90;;;;;;5003132;28;20200;-77
2022/11/25 11:06:50;;;;;;;4.03;1.40;;;14.80;99.90;;;;;;5001636;28;20188;-77
2022/11/25 11:09:44;;;;;;;6.20;1.50;;;14.70;99.90;;;;;;5015280;28;20207;-77
2022/11/25 11:12:26;;;;;;;8.33;1.57;;;14.70;99.90;;;;;;4995676;28;20965;-77
2022/11/25 11:15:25;;;;;;;3.10;1.50;;;14.70;99.90;;;;;;5021349;28;20299;-77
2022/11/25 11:17:54;;;;;;;2.73;1.60;;;14.70;99.90;;;;;;5014544;28;20719;-77
2022/11/25 11:20:30;;;;;;;3.77;1.43;;;14.70;99.90;;;;;;5000054;28;20274;-76
2022/11/25 11:23:13;;;;;;;3.17;1.43;;;14.60;99.90;;;;;;5020048;28;20195;-77
2022/11/25 11:25:58;;;;;;;6.87;1.60;;;14.60;99.90;;;;;;5013872;28;20554;-77
2022/11/25 11:28:38;;;;;;;9.13;2.23;;;14.60;99.90;;;;;;5021980;28;20192;-76
2022/11/25 11:31:24;;;;;;;3.20;2.00;;;14.40;99.90;;;;;;5016978;28;20873;-77
2022/11/25 11:34:29;;;;;;;3.53;1.50;;;14.40;99.90;;;;;;5009381;28;20215;-76
2022/11/25 11:37:14;;;;;;;4.70;1.73;;;14.30;99.90;;;;;;4992326;28;20224;-76
2022/11/25 11:40:28;;;;;;;3.27;1.80;;;14.10;99.90;;;;;;5015212;28;20247;-76
2022/11/25 11:43:05;;;;;;;3.73;2.00;;;14.10;99.90;;;;;;5013761;28;20274;-77
2022/11/25 11:46:03;;;;;;;5.93;2.03;;;14.00;99.90;;;;;;4990689;28;20189;-76
2022/11/25 11:49:02;;;;;;;2.67;1.70;;;13.80;99.90;;;;;;4994033;28;20188;-76
2022/11/25 11:51:36;;;;;;;3.83;1.47;;;13.60;99.90;;;;;;4984080;28;20259;-77
2022/11/25 11:54:48;;;;;;;5.40;1.63;;;13.20;99.90;;;;;;5023162;28;20238;-77
2022/11/25 11:57:46;;;;;;;2.90;1.40;;;12.90;99.90;;;;;;4990647;28;20245;-76
2022/11/25 12:00:16;;;;;;;3.07;1.40;;;12.30;99.90;;;;;;4999979;28;20793;-77
2022/11/25 12:03:04;;;;;;;4.77;1.70;;;12.10;99.90;;;;;;5017107;28;20982;-77
2022/11/25 12:05:36;;;;;;;5.13;1.27;;;12.00;99.90;;;;;;5013287;28;20189;-76
2022/11/25 12:08:30;;;;;;;2.37;1.30;;;12.10;99.90;;;;;;4999354;28;20291;-77
2022/11/25 12:11:14;;;;;;;3.23;1.13;;;12.30;99.90;;;;;;4997695;28;20196;-77
2022/11/25 12:13:57;;;;;;;2.17;1.20;;;12.40;99.90;;;;;;4986762;28;20219;-76
2022/11/25 12:16:39;;;;;;;2.30;1.30;;;12.40;99.90;;;;;;5012409;28;20376;-77
2022/11/25 12:19:43;;;;;;;2.40;1.20;;;12.70;99.90;;;;;;4981768;28;20185;-77
2022/11/25 12:22:57;;;;;;;2.13;1.30;;;12.90;99.90;;;;;;5000828;28;20192;-76
2022/11/25 12:25:31;;;;;;;1.40;1.20;;;12.90;99.90;;;;;;5007173;28;20709;-76
2022/11/25 12:28:40;;;;;;;2.37;1.30;;;12.80;99.90;;;;;;5005402;28;20235;-76
2022/11/25 12:31:26;;;;;;;3.20;1.40;;;12.90;99.90;;;;;;5003659;28;20270;-76
2022/11/25 12:34:20;;;;;;;1.50;1.17;;;13.00;99.90;;;;;;4999589;28;20606;-76
2022/11/25 12:36:47;;;;;;;1.20;1.10;;;13.10;99.90;;;;;;5001503;28;20914;-77
2022/11/25 12:39:43;;;;;;;3.90;1.70;;;13.10;99.90;;;;;;5000050;28;20550;-75
2022/11/25 13:09:52;;;;;;;4.90;2.20;;;13.10;99.90;;;;;;5047035;28;20580;-77
2022/11/25 13:13:05;;;;;;;2.73;2.00;;;13.10;99.90;;;;;;5037622;28;20214;-77
2022/11/25 13:15:47;;;;;;;4.20;1.90;;;13.10;99.90;;;;;;5043342;28;20215;-77
2022/11/25 13:18:24;;;;;;;4.03;1.90;;;13.10;99.90;;;;;;5044084;28;20215;-77
2022/11/25 13:21:03;;;;;;;6.43;2.27;;;13.00;99.90;;;;;;5040336;28;20281;-77
2022/11/25 13:24:00;;;;;;;4.13;2.20;;;12.90;99.90;;;;;;5036363;28;20206;-77
2022/11/25 13:26:47;;;;;;;5.57;2.13;;;13.00;99.90;;;;;;5040465;28;20270;-77
2022/11/25 13:29:13;;;;;;;5.70;2.40;;;13.00;99.90;;;;;;5038151;28;20180;-77
2022/11/25 13:32:01;;;;;;;3.70;2.20;;;13.00;99.90;;;;;;5025040;28;20181;-77
2022/11/25 13:34:35;;;;;;;4.40;2.47;;;13.00;99.90;;;;;;5066182;28;20572;-77
2022/11/25 13:37:36;;;;;;;2.63;1.77;;;13.00;99.90;;;;;;5038257;28;20187;-77
2022/11/25 13:40:36;;;;;;;6.90;2.23;;;13.00;99.90;;;;;;5043846;28;20239;-77
2022/11/25 13:43:04;;;;;;;4.20;1.90;;;12.90;99.90;;;;;;5044151;28;20210;-75
2022/11/25 13:45:44;;;;;;;5.07;2.27;;;12.90;99.90;;;;;;5046360;28;20840;-77
2022/11/25 13:48:35;;;;;;;7.33;1.90;;;12.80;99.90;;;;;;5042223;28;20215;-77
2022/11/25 13:51:23;;;;;;;4.60;1.70;;;12.80;99.90;;;;;;5039248;28;20242;-77
2022/11/25 13:54:06;;;;;;;5.90;2.00;;;12.90;99.90;;;;;;5043802;28;20191;-77
2022/11/25 13:56:37;;;;;;;8.27;2.00;;;12.90;99.90;;;;;;5047060;28;20660;-77
2022/11/25 13:59:12;;;;;;;2.50;1.87;;;12.80;99.90;;;;;;5039649;28;20262;-77
2022/11/25 14:01:45;;;;;;;3.87;2.10;;;12.70;99.90;;;;;;5040660;28;20656;-77
2022/11/25 14:04:15;;;;;;;3.93;1.80;;;12.70;99.90;;;;;;5040245;28;20187;-78